Lyons, Colorado
Current Conditions -  °F | °C
As of 10:33 AM on Thursday 30 Oct 2014 (Local Time) from KLMO Reporting Station
Clear Clear  
Wind Chill: 59°   Ceiling: Unl
Heat Index: 59°   Visibility: 10mi
Dew Point: 27°   Wind: 0mph
Humidity: 29%   Direction: NA
Pressure: 30.4"   Gusts: NA
Location:  40.22°N, 105.27°W
Report Text: KLMO 301633Z AUTO 00000KT 10SM CLR 15/M03 A3040 RMK AO2 T01521026
Loading
Personal Weather Stations






























Interactive Weather Map
Tropical Storm Tracking
New forecast layout! Learn more

10-Day Weather Forecast

Advertisements
Track Severe Weather on mobile